Davis Prairie, Texas
Current Conditions -  °F | °C
As of 2:15 PM on Friday 24 Oct 2014 (Local Time) from KLXY Reporting Station
Clear Clear  
Wind Chill: 78°   Ceiling: Unl
Heat Index: 79°   Visibility: 10mi
Dew Point: 59°   Wind: 5mph
Humidity: 52%   Direction: 180°S
Pressure: 30.13"   Gusts: NA
Location:  31.4027°N, 96.4988°W
Report Text: KLXY 241915Z AUTO 18004KT 10SM CLR 25/15 A3013 RMK AO2 T02540150
Loading
Personal Weather Stations






























Interactive Weather Map
Tropical Storm Tracking
New forecast layout! Learn more

10-Day Weather Forecast

Advertisements
Track Severe Weather on mobile